ANZ281 NZAA-NTAA
Flight info
| Callsign | ANZ281 |
|---|---|
| Flight time | 1h 36m |
| Altitude | 35000 |
| Route | OLBEX G599 TEKOT DCT AROBA AROBA4T |
| Aircraft | A359/H-SDE2E3GHIJ3J4J5LM1ORWXY/LB1D1 |
Departure
| Time | 2026-05-05 07:10 |
|---|---|
| Airport | Auckland International Airport (NZAA) |
Arrival
| Time | 2026-05-05 08:47 |
|---|---|
| Airport | Fa'a'ā International Airport (NTAA) |
| Time | Latitude | Longitude | Altitude | Speed | Heading |
|---|---|---|---|---|---|
| 2026-05-05 06:53 | -37.00517 | 174.77789 | 32 ft | 0 kts | 341° |
| 2026-05-05 07:01 | -37.00526 | 174.77793 | 31 ft | 4 kts | 340° |
| 2026-05-05 07:01 | -37.00551 | 174.77805 | 31 ft | 4 kts | 334° |
| 2026-05-05 07:01 | -37.00575 | 174.77821 | 32 ft | 4 kts | 326° |
| 2026-05-05 07:01 | -37.00592 | 174.77836 | 30 ft | 4 kts | 314° |
| 2026-05-05 07:02 | -37.00606 | 174.77860 | 32 ft | 4 kts | 288° |
| 2026-05-05 07:02 | -37.00609 | 174.77883 | 30 ft | 2 kts | 251° |
| 2026-05-05 07:02 | -37.00614 | 174.77866 | 32 ft | 4 kts | 251° |
| 2026-05-05 07:02 | -37.00622 | 174.77834 | 32 ft | 4 kts | 251° |
| 2026-05-05 07:03 | -37.00624 | 174.77828 | 32 ft | 4 kts | 251° |
| 2026-05-05 07:04 | -37.00625 | 174.77824 | 32 ft | 2 kts | 251° |
| 2026-05-05 07:05 | -37.00636 | 174.77785 | 32 ft | 8 kts | 251° |
| 2026-05-05 07:05 | -37.00658 | 174.77701 | 32 ft | 11 kts | 251° |
| 2026-05-05 07:05 | -37.00687 | 174.77600 | 32 ft | 13 kts | 250° |
| 2026-05-05 07:05 | -37.00747 | 174.77545 | 32 ft | 11 kts | 167° |
| 2026-05-05 07:06 | -37.00827 | 174.77579 | 32 ft | 13 kts | 161° |
| 2026-05-05 07:06 | -37.00915 | 174.77616 | 32 ft | 14 kts | 161° |
| 2026-05-05 07:06 | -37.01011 | 174.77658 | 32 ft | 15 kts | 161° |
| 2026-05-05 07:06 | -37.01114 | 174.77702 | 32 ft | 16 kts | 161° |
| 2026-05-05 07:07 | -37.01208 | 174.77742 | 32 ft | 14 kts | 161° |
| 2026-05-05 07:07 | -37.01270 | 174.77689 | 32 ft | 12 kts | 250° |
| 2026-05-05 07:07 | -37.01300 | 174.77584 | 32 ft | 14 kts | 251° |
| 2026-05-05 07:07 | -37.01333 | 174.77466 | 32 ft | 15 kts | 251° |
| 2026-05-05 07:08 | -37.01369 | 174.77335 | 32 ft | 16 kts | 251° |
| 2026-05-05 07:08 | -37.01401 | 174.77218 | 32 ft | 14 kts | 251° |
| 2026-05-05 07:08 | -37.01451 | 174.77114 | 31 ft | 14 kts | 210° |
| 2026-05-05 07:08 | -37.01549 | 174.77085 | 32 ft | 14 kts | 192° |
| 2026-05-05 07:09 | -37.01617 | 174.77113 | 32 ft | 10 kts | 112° |
| 2026-05-05 07:09 | -37.01609 | 174.77162 | 32 ft | 0 kts | 70° |
| 2026-05-05 07:09 | -37.01609 | 174.77163 | 32 ft | 1 kts | 70° |
| 2026-05-05 07:09 | -37.01548 | 174.77383 | 32 ft | 59 kts | 71° |
| 2026-05-05 07:10 | -37.01348 | 174.78110 | 32 ft | 116 kts | 71° |
| 2026-05-05 07:10 | -37.01030 | 174.79265 | 66 ft | 160 kts | 71° |
| 2026-05-05 07:10 | -37.00678 | 174.80503 | 847 ft | 147 kts | 71° |
| 2026-05-05 07:10 | -37.00347 | 174.81724 | 1363 ft | 157 kts | 71° |
| 2026-05-05 07:11 | -36.99972 | 174.83107 | 1658 ft | 179 kts | 70° |
| 2026-05-05 07:11 | -36.99538 | 174.84678 | 1920 ft | 205 kts | 69° |
| 2026-05-05 07:11 | -36.99038 | 174.86470 | 2236 ft | 229 kts | 69° |
| 2026-05-05 07:11 | -36.98503 | 174.88395 | 2827 ft | 238 kts | 69° |
| 2026-05-05 07:12 | -36.97954 | 174.90383 | 3488 ft | 245 kts | 69° |
| 2026-05-05 07:12 | -36.97384 | 174.92427 | 4110 ft | 252 kts | 69° |
| 2026-05-05 07:12 | -36.96800 | 174.94519 | 4763 ft | 258 kts | 69° |
| 2026-05-05 07:12 | -36.96202 | 174.96657 | 5431 ft | 263 kts | 69° |
| 2026-05-05 07:13 | -36.95597 | 174.98830 | 6134 ft | 266 kts | 69° |
| 2026-05-05 07:13 | -36.94984 | 175.01029 | 6864 ft | 270 kts | 69° |
| 2026-05-05 07:13 | -36.94360 | 175.03262 | 7579 ft | 273 kts | 69° |
| 2026-05-05 07:13 | -36.93725 | 175.05518 | 8333 ft | 276 kts | 69° |
| 2026-05-05 07:14 | -36.93068 | 175.07787 | 9093 ft | 279 kts | 69° |
| 2026-05-05 07:14 | -36.92399 | 175.10072 | 9859 ft | 282 kts | 69° |
| 2026-05-05 07:14 | -36.91717 | 175.12406 | 10422 ft | 293 kts | 69° |
| 2026-05-05 07:14 | -36.90998 | 175.14869 | 10689 ft | 312 kts | 69° |
| 2026-05-05 07:15 | -36.90232 | 175.17496 | 10960 ft | 331 kts | 69° |
| 2026-05-05 07:15 | -36.89435 | 175.20232 | 11236 ft | 348 kts | 69° |
| 2026-05-05 07:15 | -36.88586 | 175.23143 | 11529 ft | 363 kts | 69° |
| 2026-05-05 07:15 | -36.87721 | 175.26106 | 12029 ft | 369 kts | 69° |
| 2026-05-05 07:16 | -36.86836 | 175.29141 | 12624 ft | 374 kts | 69° |
| 2026-05-05 07:16 | -36.85939 | 175.32210 | 13227 ft | 378 kts | 69° |
| 2026-05-05 07:16 | -36.84987 | 175.35291 | 13814 ft | 381 kts | 65° |
| 2026-05-05 07:16 | -36.83939 | 175.38350 | 14406 ft | 384 kts | 65° |
| 2026-05-05 07:17 | -36.82875 | 175.41428 | 14949 ft | 388 kts | 65° |
| 2026-05-05 07:17 | -36.81810 | 175.44537 | 15513 ft | 391 kts | 65° |
| 2026-05-05 07:17 | -36.80741 | 175.47675 | 16125 ft | 394 kts | 65° |
| 2026-05-05 07:17 | -36.79671 | 175.50828 | 16730 ft | 397 kts | 65° |
| 2026-05-05 07:18 | -36.78591 | 175.54012 | 17329 ft | 400 kts | 65° |
| 2026-05-05 07:18 | -36.77516 | 175.57181 | 17924 ft | 403 kts | 65° |
| 2026-05-05 07:18 | -36.76418 | 175.60416 | 18541 ft | 406 kts | 65° |
| 2026-05-05 07:18 | -36.75313 | 175.63671 | 19084 ft | 409 kts | 65° |
| 2026-05-05 07:19 | -36.74198 | 175.66950 | 19590 ft | 413 kts | 65° |
| 2026-05-05 07:19 | -36.73070 | 175.70264 | 20098 ft | 417 kts | 65° |
| 2026-05-05 07:19 | -36.71931 | 175.73608 | 20638 ft | 421 kts | 65° |
| 2026-05-05 07:19 | -36.70782 | 175.76978 | 21153 ft | 425 kts | 65° |
| 2026-05-05 07:20 | -36.69617 | 175.80390 | 21663 ft | 429 kts | 65° |
| 2026-05-05 07:20 | -36.68443 | 175.83826 | 22167 ft | 433 kts | 65° |
| 2026-05-05 07:20 | -36.67258 | 175.87290 | 22668 ft | 437 kts | 65° |
| 2026-05-05 07:20 | -36.66070 | 175.90760 | 23162 ft | 441 kts | 65° |
| 2026-05-05 07:21 | -36.64861 | 175.94286 | 23656 ft | 445 kts | 65° |
| 2026-05-05 07:21 | -36.63636 | 175.97853 | 24135 ft | 449 kts | 65° |
| 2026-05-05 07:21 | -36.62402 | 176.01444 | 24550 ft | 453 kts | 65° |
| 2026-05-05 07:21 | -36.61156 | 176.05064 | 24968 ft | 456 kts | 65° |
| 2026-05-05 07:22 | -36.59903 | 176.08703 | 25387 ft | 459 kts | 65° |
| 2026-05-05 07:22 | -36.58637 | 176.12371 | 25819 ft | 462 kts | 65° |
| 2026-05-05 07:22 | -36.57361 | 176.16065 | 26243 ft | 465 kts | 65° |
| 2026-05-05 07:22 | -36.56077 | 176.19779 | 26666 ft | 468 kts | 65° |
| 2026-05-05 07:23 | -36.54785 | 176.23510 | 27076 ft | 471 kts | 64° |
| 2026-05-05 07:23 | -36.53483 | 176.27264 | 27495 ft | 474 kts | 64° |
| 2026-05-05 07:23 | -36.52173 | 176.31040 | 27919 ft | 477 kts | 64° |
| 2026-05-05 07:23 | -36.50855 | 176.34831 | 28324 ft | 479 kts | 64° |
| 2026-05-05 07:24 | -36.49544 | 176.38599 | 28732 ft | 482 kts | 64° |
| 2026-05-05 07:24 | -36.48208 | 176.42433 | 29136 ft | 484 kts | 64° |
| 2026-05-05 07:24 | -36.46864 | 176.46285 | 29520 ft | 487 kts | 64° |
| 2026-05-05 07:24 | -36.45511 | 176.50159 | 29909 ft | 489 kts | 64° |
| 2026-05-05 07:25 | -36.44149 | 176.54054 | 30274 ft | 492 kts | 64° |
| 2026-05-05 07:25 | -36.42781 | 176.57961 | 30611 ft | 494 kts | 64° |
| 2026-05-05 07:25 | -36.41409 | 176.61874 | 30884 ft | 496 kts | 64° |
| 2026-05-05 07:25 | -36.40025 | 176.65814 | 31141 ft | 499 kts | 64° |
| 2026-05-05 07:26 | -36.38632 | 176.69779 | 31418 ft | 500 kts | 64° |
| 2026-05-05 07:26 | -36.37242 | 176.73729 | 31784 ft | 500 kts | 64° |
| 2026-05-05 07:26 | -36.35865 | 176.77637 | 32157 ft | 499 kts | 64° |
| 2026-05-05 07:26 | -36.34474 | 176.81578 | 32521 ft | 499 kts | 64° |
| 2026-05-05 07:27 | -36.33082 | 176.85519 | 32847 ft | 498 kts | 64° |
| 2026-05-05 07:27 | -36.31688 | 176.89459 | 33205 ft | 498 kts | 64° |
| 2026-05-05 07:27 | -36.30295 | 176.93390 | 33539 ft | 498 kts | 64° |
| 2026-05-05 07:27 | -36.28902 | 176.97317 | 33890 ft | 497 kts | 64° |
| 2026-05-05 07:28 | -36.27510 | 177.01237 | 34216 ft | 497 kts | 64° |
| 2026-05-05 07:28 | -36.26117 | 177.05152 | 34530 ft | 496 kts | 64° |
| 2026-05-05 07:28 | -36.24725 | 177.09061 | 34795 ft | 496 kts | 64° |
| 2026-05-05 07:28 | -36.23331 | 177.12971 | 35045 ft | 496 kts | 64° |
| 2026-05-05 07:29 | -36.20260 | 177.21569 | 35464 ft | 499 kts | 64° |
| 2026-05-05 07:29 | -36.09011 | 177.52856 | 35480 ft | 501 kts | 64° |
| 2026-05-05 07:30 | -35.97558 | 177.84386 | 35478 ft | 500 kts | 63° |
| 2026-05-05 07:30 | -35.80335 | 178.31213 | 35482 ft | 499 kts | 62° |
| 2026-05-05 07:31 | -35.68744 | 178.62344 | 35482 ft | 500 kts | 62° |
| 2026-05-05 07:31 | -35.57278 | 178.93308 | 35483 ft | 501 kts | 62° |
| 2026-05-05 07:32 | -35.45640 | 179.24394 | 35489 ft | 500 kts | 61° |
| 2026-05-05 07:32 | -35.33933 | 179.55366 | 35486 ft | 501 kts | 62° |
| 2026-05-05 07:33 | -35.22117 | 179.86329 | 35491 ft | 502 kts | 61° |
| 2026-05-05 07:33 | -35.10250 | -179.82873 | 35486 ft | 504 kts | 61° |
| 2026-05-05 07:34 | -34.98200 | -179.51892 | 35484 ft | 505 kts | 61° |
| 2026-05-05 07:34 | -34.86051 | -179.20950 | 35489 ft | 505 kts | 61° |
| 2026-05-05 07:35 | -34.73827 | -178.90111 | 35486 ft | 506 kts | 61° |
| 2026-05-05 07:35 | -34.61552 | -178.59426 | 35486 ft | 508 kts | 61° |
| 2026-05-05 07:36 | -34.49058 | -178.28482 | 35485 ft | 510 kts | 60° |
| 2026-05-05 07:36 | -34.36500 | -177.97662 | 35478 ft | 511 kts | 60° |
| 2026-05-05 07:37 | -34.23833 | -177.66860 | 35480 ft | 511 kts | 60° |
| 2026-05-05 07:37 | -34.11099 | -177.36174 | 35479 ft | 510 kts | 60° |
| 2026-05-05 07:38 | -33.98413 | -177.05875 | 35476 ft | 510 kts | 60° |
| 2026-05-05 07:38 | -33.85469 | -176.75232 | 35472 ft | 511 kts | 60° |
| 2026-05-05 07:39 | -33.72460 | -176.44711 | 35475 ft | 512 kts | 60° |
| 2026-05-05 07:39 | -33.59456 | -176.14463 | 35472 ft | 513 kts | 60° |
| 2026-05-05 07:40 | -33.46248 | -175.84007 | 35469 ft | 515 kts | 60° |
| 2026-05-05 07:40 | -33.32920 | -175.53539 | 35462 ft | 516 kts | 59° |
| 2026-05-05 07:41 | -33.19592 | -175.23334 | 35468 ft | 518 kts | 59° |
| 2026-05-05 07:41 | -33.06016 | -174.92830 | 35463 ft | 520 kts | 59° |
| 2026-05-05 07:42 | -32.92345 | -174.62361 | 35453 ft | 522 kts | 59° |
| 2026-05-05 07:42 | -32.78542 | -174.31859 | 35463 ft | 524 kts | 59° |
| 2026-05-05 07:43 | -32.64678 | -174.01480 | 35457 ft | 526 kts | 58° |
| 2026-05-05 07:43 | -32.50629 | -173.70954 | 35449 ft | 528 kts | 58° |
| 2026-05-05 07:44 | -32.36441 | -173.40382 | 35445 ft | 529 kts | 58° |
| 2026-05-05 07:44 | -32.22236 | -173.10028 | 35442 ft | 531 kts | 58° |
| 2026-05-05 07:45 | -32.07813 | -172.79459 | 35440 ft | 533 kts | 58° |
| 2026-05-05 07:45 | -31.93263 | -172.48876 | 35436 ft | 535 kts | 57° |
| 2026-05-05 07:46 | -31.78683 | -172.18478 | 35426 ft | 537 kts | 57° |
| 2026-05-05 07:46 | -31.63903 | -171.87912 | 35423 ft | 539 kts | 57° |
| 2026-05-05 07:47 | -31.48990 | -171.57320 | 35415 ft | 541 kts | 57° |
| 2026-05-05 07:47 | -31.34003 | -171.26824 | 35409 ft | 543 kts | 56° |
| 2026-05-05 07:48 | -31.18841 | -170.96219 | 35403 ft | 545 kts | 56° |
| 2026-05-05 07:48 | -31.03534 | -170.65568 | 35391 ft | 546 kts | 56° |
| 2026-05-05 07:49 | -30.88128 | -170.34965 | 35385 ft | 547 kts | 56° |
| 2026-05-05 07:49 | -30.72720 | -170.04597 | 35375 ft | 548 kts | 55° |
| 2026-05-05 07:50 | -30.57096 | -169.74032 | 35371 ft | 549 kts | 54° |
| 2026-05-05 07:50 | -30.41468 | -169.43703 | 35363 ft | 550 kts | 54° |
| 2026-05-05 07:51 | -30.25678 | -169.13294 | 35362 ft | 550 kts | 54° |
| 2026-05-05 07:51 | -30.12521 | -168.88133 | 35358 ft | 550 kts | 53° |
| 2026-05-05 07:52 | -29.96581 | -168.57860 | 35350 ft | 550 kts | 53° |
| 2026-05-05 07:52 | -29.80620 | -168.27773 | 35343 ft | 550 kts | 53° |
| 2026-05-05 07:53 | -29.64675 | -167.97937 | 35333 ft | 549 kts | 53° |
| 2026-05-05 07:53 | -29.48617 | -167.68112 | 35329 ft | 548 kts | 53° |
| 2026-05-05 07:54 | -29.32567 | -167.38517 | 35323 ft | 548 kts | 52° |
| 2026-05-05 07:54 | -29.16395 | -167.08910 | 35318 ft | 546 kts | 52° |
| 2026-05-05 07:55 | -29.00281 | -166.79620 | 35311 ft | 545 kts | 52° |
| 2026-05-05 07:55 | -28.84062 | -166.50345 | 35307 ft | 544 kts | 52° |
| 2026-05-05 07:56 | -28.67791 | -166.21184 | 35302 ft | 543 kts | 52° |
| 2026-05-05 07:56 | -28.51590 | -165.92346 | 35294 ft | 544 kts | 51° |
| 2026-05-05 07:57 | -28.35176 | -165.63327 | 35290 ft | 544 kts | 50° |
| 2026-05-05 07:57 | -28.18738 | -165.34464 | 35289 ft | 544 kts | 50° |
| 2026-05-05 07:58 | -28.02258 | -165.05722 | 35279 ft | 542 kts | 49° |
| 2026-05-05 07:58 | -27.85851 | -164.77300 | 35274 ft | 541 kts | 49° |
| 2026-05-05 07:59 | -27.69321 | -164.48853 | 35265 ft | 542 kts | 49° |
| 2026-05-05 07:59 | -27.52721 | -164.20470 | 35265 ft | 543 kts | 48° |
| 2026-05-05 08:00 | -27.36045 | -163.92139 | 35239 ft | 542 kts | 48° |
| 2026-05-05 08:00 | -27.19290 | -163.63859 | 35244 ft | 543 kts | 47° |
| 2026-05-05 08:01 | -27.02580 | -163.35833 | 35238 ft | 543 kts | 47° |
| 2026-05-05 08:01 | -26.85696 | -163.07692 | 35226 ft | 543 kts | 46° |
| 2026-05-05 08:02 | -26.68785 | -162.79685 | 35222 ft | 542 kts | 46° |
| 2026-05-05 08:02 | -26.51816 | -162.51756 | 35214 ft | 541 kts | 46° |
| 2026-05-05 08:03 | -26.34959 | -162.24182 | 35205 ft | 541 kts | 46° |
| 2026-05-05 08:03 | -26.17878 | -161.96407 | 35196 ft | 541 kts | 46° |
| 2026-05-05 08:04 | -26.00796 | -161.68800 | 35190 ft | 541 kts | 46° |
| 2026-05-05 08:04 | -25.83639 | -161.41236 | 35176 ft | 541 kts | 46° |
| 2026-05-05 08:05 | -25.66550 | -161.13943 | 35171 ft | 541 kts | 47° |
| 2026-05-05 08:05 | -25.49288 | -160.86531 | 35162 ft | 540 kts | 46° |
| 2026-05-05 08:06 | -25.32138 | -160.59459 | 35164 ft | 539 kts | 46° |
| 2026-05-05 08:06 | -25.14859 | -160.32337 | 35151 ft | 539 kts | 46° |
| 2026-05-05 08:07 | -24.97573 | -160.05357 | 35144 ft | 538 kts | 46° |
| 2026-05-05 08:07 | -24.80175 | -159.78357 | 35141 ft | 538 kts | 46° |
| 2026-05-05 08:08 | -24.62894 | -159.51689 | 35135 ft | 539 kts | 47° |
| 2026-05-05 08:08 | -24.45410 | -159.24853 | 35129 ft | 541 kts | 47° |
| 2026-05-05 08:09 | -24.27810 | -158.97985 | 35119 ft | 543 kts | 47° |
| 2026-05-05 08:09 | -24.10090 | -158.71079 | 35113 ft | 544 kts | 47° |
| 2026-05-05 08:10 | -23.92325 | -158.44255 | 35107 ft | 544 kts | 47° |
| 2026-05-05 08:10 | -23.74475 | -158.17446 | 35108 ft | 545 kts | 48° |
| 2026-05-05 08:11 | -23.56544 | -157.90658 | 35104 ft | 548 kts | 48° |
| 2026-05-05 08:11 | -23.38569 | -157.63945 | 35101 ft | 548 kts | 48° |
| 2026-05-05 08:12 | -23.20491 | -157.37218 | 35094 ft | 547 kts | 48° |
| 2026-05-05 08:12 | -23.02424 | -157.10647 | 35091 ft | 545 kts | 48° |
| 2026-05-05 08:13 | -22.84472 | -156.84370 | 35084 ft | 544 kts | 48° |
| 2026-05-05 08:13 | -22.66403 | -156.58049 | 35076 ft | 542 kts | 48° |
| 2026-05-05 08:14 | -22.48392 | -156.31943 | 35076 ft | 540 kts | 48° |
| 2026-05-05 08:14 | -22.30497 | -156.06132 | 35074 ft | 540 kts | 48° |
| 2026-05-05 08:15 | -22.12410 | -155.80170 | 35068 ft | 540 kts | 48° |
| 2026-05-05 08:15 | -21.94299 | -155.54298 | 35063 ft | 539 kts | 48° |
| 2026-05-05 08:16 | -21.76186 | -155.28548 | 35058 ft | 538 kts | 49° |
| 2026-05-05 08:16 | -21.58075 | -155.02923 | 35050 ft | 536 kts | 49° |
| 2026-05-05 08:17 | -21.39973 | -154.77429 | 35049 ft | 536 kts | 49° |
| 2026-05-05 08:17 | -21.21986 | -154.52212 | 35040 ft | 536 kts | 49° |
| 2026-05-05 08:18 | -21.03839 | -154.26884 | 35034 ft | 535 kts | 49° |
| 2026-05-05 08:18 | -20.85733 | -154.01729 | 35040 ft | 531 kts | 49° |
| 2026-05-05 08:19 | -20.67674 | -153.76749 | 35029 ft | 530 kts | 49° |
| 2026-05-05 08:19 | -20.49701 | -153.51996 | 35020 ft | 530 kts | 49° |
| 2026-05-05 08:20 | -20.31582 | -153.27149 | 35026 ft | 530 kts | 49° |
| 2026-05-05 08:20 | -20.13397 | -153.02319 | 35018 ft | 532 kts | 49° |
| 2026-05-05 08:21 | -19.95128 | -152.77479 | 35015 ft | 531 kts | 49° |
| 2026-05-05 08:21 | -19.77019 | -152.52959 | 35009 ft | 530 kts | 50° |
| 2026-05-05 08:22 | -19.58776 | -152.28360 | 35008 ft | 529 kts | 50° |
| 2026-05-05 08:22 | -19.40457 | -152.03757 | 35009 ft | 529 kts | 50° |
| 2026-05-05 08:23 | -19.22345 | -151.79532 | 35008 ft | 527 kts | 50° |
| 2026-05-05 08:23 | -19.04123 | -151.55257 | 35005 ft | 525 kts | 50° |
| 2026-05-05 08:24 | -18.85886 | -151.31056 | 35015 ft | 524 kts | 50° |
| 2026-05-05 08:24 | -18.67581 | -151.07353 | 35008 ft | 523 kts | 49° |
| 2026-05-05 08:25 | -18.49075 | -150.83694 | 35003 ft | 521 kts | 49° |
| 2026-05-05 08:25 | -18.30569 | -150.60120 | 35004 ft | 520 kts | 49° |
| 2026-05-05 08:26 | -18.16919 | -150.42788 | 34951 ft | 516 kts | 50° |
| 2026-05-05 08:26 | -18.14638 | -150.39895 | 34381 ft | 514 kts | 50° |
| 2026-05-05 08:26 | -18.12349 | -150.36995 | 33608 ft | 515 kts | 49° |
| 2026-05-05 08:27 | -18.10057 | -150.34091 | 32753 ft | 517 kts | 49° |
| 2026-05-05 08:27 | -18.07754 | -150.31175 | 31865 ft | 519 kts | 49° |
| 2026-05-05 08:27 | -18.05441 | -150.28246 | 30986 ft | 521 kts | 49° |
| 2026-05-05 08:27 | -18.03181 | -150.25255 | 30121 ft | 523 kts | 50° |
| 2026-05-05 08:28 | -18.00954 | -150.22220 | 29173 ft | 524 kts | 50° |
| 2026-05-05 08:28 | -17.98727 | -150.19190 | 28336 ft | 522 kts | 50° |
| 2026-05-05 08:28 | -17.96507 | -150.16183 | 27589 ft | 518 kts | 50° |
| 2026-05-05 08:28 | -17.94367 | -150.13291 | 26529 ft | 499 kts | 50° |
| 2026-05-05 08:29 | -17.92247 | -150.10432 | 25009 ft | 492 kts | 50° |
| 2026-05-05 08:29 | -17.90149 | -150.07610 | 23540 ft | 487 kts | 50° |
| 2026-05-05 08:29 | -17.88077 | -150.04826 | 21921 ft | 480 kts | 50° |
| 2026-05-05 08:30 | -17.84046 | -149.99412 | 19042 ft | 461 kts | 50° |
| 2026-05-05 08:30 | -17.82088 | -149.96784 | 17571 ft | 452 kts | 50° |
| 2026-05-05 08:30 | -17.80164 | -149.94204 | 16161 ft | 448 kts | 50° |
| 2026-05-05 08:30 | -17.78242 | -149.91630 | 15549 ft | 444 kts | 50° |
| 2026-05-05 08:31 | -17.76393 | -149.89150 | 15148 ft | 433 kts | 50° |
| 2026-05-05 08:31 | -17.74536 | -149.86666 | 14444 ft | 431 kts | 50° |
| 2026-05-05 08:31 | -17.72697 | -149.84208 | 13818 ft | 427 kts | 51° |
| 2026-05-05 08:31 | -17.70873 | -149.81763 | 13174 ft | 422 kts | 51° |
| 2026-05-05 08:32 | -17.69075 | -149.79357 | 12585 ft | 415 kts | 51° |
| 2026-05-05 08:32 | -17.67308 | -149.76992 | 12022 ft | 408 kts | 51° |
| 2026-05-05 08:32 | -17.65571 | -149.74668 | 11482 ft | 402 kts | 51° |
| 2026-05-05 08:32 | -17.63883 | -149.72410 | 11327 ft | 384 kts | 51° |
| 2026-05-05 08:33 | -17.62269 | -149.70252 | 11227 ft | 367 kts | 51° |
| 2026-05-05 08:33 | -17.60730 | -149.68194 | 11095 ft | 352 kts | 51° |
| 2026-05-05 08:33 | -17.59246 | -149.66212 | 10931 ft | 339 kts | 51° |
| 2026-05-05 08:33 | -17.57821 | -149.64307 | 10787 ft | 326 kts | 51° |
| 2026-05-05 08:34 | -17.56444 | -149.62469 | 10642 ft | 315 kts | 51° |
| 2026-05-05 08:34 | -17.55109 | -149.60688 | 10421 ft | 307 kts | 51° |
| 2026-05-05 08:34 | -17.53809 | -149.58929 | 10111 ft | 303 kts | 53° |
| 2026-05-05 08:34 | -17.52602 | -149.57131 | 9760 ft | 301 kts | 56° |
| 2026-05-05 08:35 | -17.51430 | -149.55342 | 9367 ft | 298 kts | 56° |
| 2026-05-05 08:35 | -17.50256 | -149.53563 | 9039 ft | 294 kts | 55° |
| 2026-05-05 08:35 | -17.49096 | -149.51820 | 8739 ft | 290 kts | 55° |
| 2026-05-05 08:35 | -17.47944 | -149.50096 | 8451 ft | 289 kts | 55° |
| 2026-05-05 08:36 | -17.46788 | -149.48372 | 8038 ft | 289 kts | 55° |
| 2026-05-05 08:36 | -17.45638 | -149.46659 | 7776 ft | 285 kts | 55° |
| 2026-05-05 08:36 | -17.44498 | -149.44964 | 7539 ft | 284 kts | 55° |
| 2026-05-05 08:36 | -17.43749 | -149.43849 | 7357 ft | 283 kts | 55° |
| 2026-05-05 08:37 | -17.42238 | -149.41603 | 6969 ft | 281 kts | 55° |
| 2026-05-05 08:37 | -17.41490 | -149.40493 | 6769 ft | 280 kts | 55° |
| 2026-05-05 08:37 | -17.40011 | -149.38296 | 6388 ft | 278 kts | 55° |
| 2026-05-05 08:37 | -17.38899 | -149.36645 | 6083 ft | 276 kts | 55° |
| 2026-05-05 08:38 | -17.37779 | -149.35019 | 5740 ft | 275 kts | 52° |
| 2026-05-05 08:38 | -17.36889 | -149.34085 | 5621 ft | 273 kts | 38° |
| 2026-05-05 08:38 | -17.34560 | -149.33228 | 5439 ft | 264 kts | 1° |
| 2026-05-05 08:38 | -17.33369 | -149.33406 | 5314 ft | 258 kts | 343° |
| 2026-05-05 08:39 | -17.31870 | -149.34292 | 5060 ft | 241 kts | 318° |
| 2026-05-05 08:39 | -17.30899 | -149.35676 | 4689 ft | 233 kts | 293° |
| 2026-05-05 08:39 | -17.30559 | -149.37292 | 4503 ft | 225 kts | 270° |
| 2026-05-05 08:39 | -17.30813 | -149.38885 | 4381 ft | 222 kts | 248° |
| 2026-05-05 08:40 | -17.31608 | -149.40251 | 4259 ft | 220 kts | 226° |
| 2026-05-05 08:40 | -17.32849 | -149.41209 | 4176 ft | 231 kts | 204° |
| 2026-05-05 08:40 | -17.34364 | -149.41621 | 4073 ft | 220 kts | 182° |
| 2026-05-05 08:40 | -17.35863 | -149.41648 | 3959 ft | 210 kts | 178° |
| 2026-05-05 08:41 | -17.37255 | -149.41625 | 3908 ft | 195 kts | 178° |
| 2026-05-05 08:41 | -17.38586 | -149.41608 | 3800 ft | 190 kts | 178° |
| 2026-05-05 08:41 | -17.39906 | -149.41600 | 3682 ft | 190 kts | 178° |
| 2026-05-05 08:41 | -17.41227 | -149.41640 | 3557 ft | 191 kts | 185° |
| 2026-05-05 08:42 | -17.42441 | -149.42199 | 3460 ft | 192 kts | 214° |
| 2026-05-05 08:42 | -17.43367 | -149.43201 | 3401 ft | 192 kts | 233° |
| 2026-05-05 08:42 | -17.44134 | -149.44352 | 3333 ft | 192 kts | 234° |
| 2026-05-05 08:42 | -17.44911 | -149.45495 | 3282 ft | 192 kts | 233° |
| 2026-05-05 08:43 | -17.45692 | -149.46626 | 3158 ft | 192 kts | 233° |
| 2026-05-05 08:43 | -17.46474 | -149.47747 | 2896 ft | 191 kts | 233° |
| 2026-05-05 08:43 | -17.47243 | -149.48870 | 2633 ft | 187 kts | 234° |
| 2026-05-05 08:43 | -17.47986 | -149.49956 | 2345 ft | 179 kts | 234° |
| 2026-05-05 08:44 | -17.48693 | -149.50987 | 2092 ft | 170 kts | 233° |
| 2026-05-05 08:44 | -17.49369 | -149.51973 | 1863 ft | 164 kts | 233° |
| 2026-05-05 08:44 | -17.50021 | -149.52923 | 1636 ft | 156 kts | 233° |
| 2026-05-05 08:44 | -17.50641 | -149.53828 | 1402 ft | 148 kts | 234° |
| 2026-05-05 08:45 | -17.51238 | -149.54699 | 1212 ft | 147 kts | 233° |
| 2026-05-05 08:45 | -17.51838 | -149.55574 | 1009 ft | 148 kts | 233° |
| 2026-05-05 08:45 | -17.52429 | -149.56438 | 791 ft | 147 kts | 233° |
| 2026-05-05 08:45 | -17.53021 | -149.57309 | 617 ft | 146 kts | 234° |
| 2026-05-05 08:46 | -17.53614 | -149.58171 | 366 ft | 145 kts | 233° |
| 2026-05-05 08:46 | -17.54201 | -149.59024 | 203 ft | 145 kts | 233° |
| 2026-05-05 08:46 | -17.54793 | -149.59883 | 33 ft | 144 kts | 232° |
| 2026-05-05 08:46 | -17.55312 | -149.60638 | 28 ft | 97 kts | 234° |
| 2026-05-05 08:47 | -17.55543 | -149.60974 | 28 ft | 32 kts | 234° |
| 2026-05-05 08:47 | -17.55605 | -149.61065 | 26 ft | 5 kts | 234° |
| 2026-05-05 08:47 | -17.55633 | -149.61102 | 26 ft | 8 kts | 226° |
| 2026-05-05 08:47 | -17.55684 | -149.61120 | 27 ft | 8 kts | 169° |
| 2026-05-05 08:48 | -17.55735 | -149.61092 | 27 ft | 9 kts | 147° |
| 2026-05-05 08:48 | -17.55797 | -149.61071 | 28 ft | 8 kts | 157° |
| 2026-05-05 08:48 | -17.55824 | -149.61029 | 28 ft | 7 kts | 142° |
| 2026-05-05 08:48 | -17.55851 | -149.61008 | 28 ft | 0 kts | 144° |
| 2026-05-05 08:49 | -17.55844 | -149.61014 | 29 ft | 0 kts | 144° |
| 2026-05-05 08:50 | -17.55841 | -149.61016 | 28 ft | 0 kts | 144° |
| 2026-05-05 08:50 | -17.55851 | -149.61009 | 28 ft | 0 kts | 144° |